createdAt,value
2022-08-03T00:02:24.434Z,73.93
2022-08-03T00:04:55.480Z,74.23
2022-08-03T00:07:26.172Z,74.33
2022-08-03T00:09:57.219Z,74.31
2022-08-03T00:12:27.971Z,74.21
2022-08-03T00:14:58.803Z,74.18
2022-08-03T00:17:29.638Z,74.13
2022-08-03T00:20:20.954Z,74.28
2022-08-03T00:23:00.496Z,74.37
2022-08-03T00:25:31.492Z,74.18
2022-08-03T00:28:02.503Z,74.15
2022-08-03T00:30:34.180Z,74.24
2022-08-03T00:33:05.605Z,74.31
2022-08-03T00:35:50.321Z,74.36
2022-08-03T00:38:22.138Z,74.58
2022-08-03T00:40:53.183Z,74.47
2022-08-03T00:43:27.905Z,74.32
2022-08-03T00:45:59.066Z,74.34
2022-08-03T00:48:33.358Z,74.74
2022-08-03T00:51:05.303Z,74.95
2022-08-03T00:53:38.071Z,74.76
2022-08-03T00:56:09.379Z,74.63
2022-08-03T00:58:40.273Z,74.60
2022-08-03T01:01:12.548Z,74.69
2022-08-03T01:03:44.045Z,74.83
2022-08-03T01:06:20.862Z,74.81
2022-08-03T01:09:00.748Z,74.77
2022-08-03T01:12:00.028Z,74.77
2022-08-03T01:14:38.636Z,74.78
2022-08-03T01:17:20.484Z,74.98
2022-08-03T01:20:01.847Z,74.82
2022-08-03T01:22:53.090Z,74.86
2022-08-03T01:25:36.418Z,74.93
2022-08-03T01:28:27.197Z,74.96
2022-08-03T01:31:02.684Z,75.04
2022-08-03T01:33:40.474Z,75.13
2022-08-03T01:36:14.942Z,75.39
2022-08-03T01:38:49.097Z,75.55
2022-08-03T01:41:22.451Z,75.44
2022-08-03T01:44:28.487Z,75.51
2022-08-03T01:46:49.236Z,75.46
2022-08-03T01:49:21.458Z,75.35
2022-08-03T01:51:57.850Z,75.47
2022-08-03T01:54:38.933Z,75.44
2022-08-03T01:57:11.008Z,75.47
2022-08-03T01:59:43.299Z,75.36
2022-08-03T02:02:33.295Z,75.45
2022-08-03T02:05:10.799Z,75.33
2022-08-03T02:07:43.817Z,75.45
2022-08-03T02:10:34.841Z,75.18
2022-08-03T02:13:09.037Z,75.33
2022-08-03T02:15:41.099Z,75.34
2022-08-03T02:18:13.807Z,75.35
2022-08-03T02:20:46.036Z,75.42
2022-08-03T02:23:18.394Z,75.42
2022-08-03T02:25:54.099Z,75.37
2022-08-03T02:28:32.816Z,75.44
2022-08-03T02:31:10.682Z,75.27
2022-08-03T02:33:50.266Z,75.65
2022-08-03T02:36:25.541Z,75.82
2022-08-03T02:39:03.539Z,75.78
2022-08-03T02:41:39.446Z,75.79
2022-08-03T02:44:13.656Z,75.80
2022-08-03T02:46:48.331Z,75.75
2022-08-03T02:49:42.172Z,75.87
2022-08-03T02:52:16.022Z,75.97
2022-08-03T02:54:47.415Z,76.09
2022-08-03T02:57:20.493Z,76.10
2022-08-03T02:59:52.811Z,75.97
2022-08-03T03:02:25.224Z,76.15
2022-08-03T03:05:51.764Z,76.09
2022-08-03T03:07:53.018Z,76.20
2022-08-03T03:10:26.769Z,76.18
2022-08-03T03:13:01.733Z,76.10
2022-08-03T03:15:35.906Z,76.08
2022-08-03T03:18:10.150Z,76.04
2022-08-03T03:20:42.409Z,76.08
2022-08-03T03:23:14.609Z,76.05
2022-08-03T03:25:46.316Z,76.08
2022-08-03T03:28:17.313Z,76.09
2022-08-03T03:30:52.568Z,76.10
2022-08-03T03:33:24.813Z,76.15
2022-08-03T03:35:56.542Z,76.31
2022-08-03T03:38:28.065Z,76.23
2022-08-03T03:40:59.313Z,76.37
2022-08-03T03:43:30.914Z,76.38
2022-08-03T03:46:02.469Z,76.49
2022-08-03T03:48:33.258Z,76.50
2022-08-03T03:51:05.231Z,76.49
2022-08-03T03:53:36.208Z,76.43
2022-08-03T03:56:07.273Z,76.31
2022-08-03T03:58:38.023Z,76.23
2022-08-03T04:01:09.963Z,76.12
2022-08-03T04:03:41.074Z,76.21
2022-08-03T04:06:30.813Z,76.32
2022-08-03T04:09:20.770Z,76.31
2022-08-03T04:11:55.262Z,76.33
2022-08-03T04:14:30.830Z,76.31
2022-08-03T04:17:05.257Z,76.24
2022-08-03T04:19:41.735Z,76.46
2022-08-03T04:22:18.944Z,76.58
2022-08-03T04:24:53.281Z,76.55
2022-08-03T04:27:27.079Z,76.53
2022-08-03T04:30:00.760Z,76.53
2022-08-03T04:32:32.994Z,76.25
2022-08-03T04:35:03.922Z,75.55
2022-08-03T04:37:40.232Z,75.04
2022-08-03T04:40:15.436Z,74.85
2022-08-03T04:42:48.163Z,74.58
2022-08-03T04:45:20.706Z,74.45
2022-08-03T04:47:53.403Z,74.07
2022-08-03T04:50:24.692Z,74.11
2022-08-03T04:52:56.879Z,74.07
2022-08-03T04:55:31.756Z,73.93
2022-08-03T04:58:03.657Z,73.92
2022-08-03T05:00:34.766Z,73.65
2022-08-03T05:03:20.237Z,73.22
2022-08-03T05:06:09.822Z,72.79
2022-08-03T05:08:46.979Z,71.86
2022-08-03T05:11:20.093Z,71.06
2022-08-03T05:13:51.105Z,70.07
2022-08-03T05:16:22.223Z,69.25
2022-08-03T05:18:53.204Z,68.93
2022-08-03T05:21:24.224Z,68.91
2022-08-03T05:23:55.062Z,68.56
2022-08-03T05:26:26.070Z,68.90
2022-08-03T05:28:57.621Z,69.01
2022-08-03T05:31:28.540Z,69.46
2022-08-03T05:33:59.533Z,69.84
2022-08-03T05:36:30.671Z,69.94
2022-08-03T05:39:02.866Z,70.46
2022-08-03T05:41:36.979Z,70.97
2022-08-03T05:44:08.218Z,71.33
2022-08-03T05:46:39.183Z,71.65
2022-08-03T05:49:10.339Z,72.06
2022-08-03T05:51:41.399Z,71.81
2022-08-03T05:54:12.509Z,72.22
2022-08-03T05:56:43.416Z,72.55
2022-08-03T05:59:37.087Z,72.73
2022-08-03T06:02:05.716Z,73.02
2022-08-03T06:04:36.751Z,73.00
2022-08-03T06:07:07.593Z,73.02
2022-08-03T06:10:35.272Z,72.84
2022-08-03T06:12:30.452Z,73.10
2022-08-03T06:15:01.369Z,73.23
2022-08-03T06:17:37.298Z,72.78
2022-08-03T06:20:10.443Z,73.10
2022-08-03T06:22:49.097Z,73.42
2022-08-03T06:25:22.547Z,73.22
2022-08-03T06:27:53.485Z,72.95
2022-08-03T06:30:24.857Z,72.93
2022-08-03T06:32:55.795Z,72.81
2022-08-03T06:35:27.939Z,73.02
2022-08-03T06:37:59.051Z,72.14
2022-08-03T06:40:31.494Z,71.74
2022-08-03T06:43:04.326Z,70.57
2022-08-03T06:45:36.047Z,68.97
2022-08-03T06:48:09.228Z,66.93
2022-08-03T06:50:42.570Z,67.66
2022-08-03T06:53:19.790Z,67.26
2022-08-03T06:56:12.314Z,65.39
2022-08-03T06:58:43.511Z,65.84
2022-08-03T07:01:14.300Z,64.80
2022-08-03T07:03:52.503Z,62.01
2022-08-03T07:06:23.824Z,61.76
2022-08-03T07:08:59.186Z,62.97
2022-08-03T07:11:30.580Z,61.11
2022-08-03T07:14:01.558Z,61.81
2022-08-03T07:16:32.452Z,60.01
2022-08-03T07:19:03.340Z,60.04
2022-08-03T07:21:34.336Z,60.16
2022-08-03T07:24:05.932Z,60.05
2022-08-03T07:26:36.823Z,58.85
2022-08-03T07:29:14.768Z,58.94
2022-08-03T07:31:46.515Z,57.94
2022-08-03T07:34:18.037Z,57.94
2022-08-03T07:36:48.847Z,57.38
2022-08-03T07:39:20.012Z,56.74
2022-08-03T07:41:51.837Z,56.34
2022-08-03T07:44:23.026Z,56.83
2022-08-03T07:46:53.981Z,57.00
2022-08-03T07:49:28.102Z,55.36
2022-08-03T07:52:16.954Z,54.46
2022-08-03T07:54:48.588Z,54.68
2022-08-03T07:57:19.636Z,55.05
2022-08-03T08:00:01.704Z,55.33
2022-08-03T08:02:33.076Z,55.69
2022-08-03T08:05:05.922Z,55.23
2022-08-03T08:07:37.526Z,54.68
2022-08-03T08:10:11.101Z,54.91
2022-08-03T08:12:42.508Z,54.66
2022-08-03T08:15:13.463Z,55.47
2022-08-03T08:17:49.336Z,54.57
2022-08-03T08:20:23.813Z,53.17
2022-08-03T08:23:01.749Z,52.88
2022-08-03T08:25:34.061Z,53.05
2022-08-03T08:28:30.081Z,53.00
2022-08-03T08:30:56.415Z,52.70
2022-08-03T08:33:37.304Z,53.11
2022-08-03T08:36:18.269Z,53.58
2022-08-03T08:38:49.656Z,51.67
2022-08-03T08:41:40.636Z,52.44
2022-08-03T08:44:17.344Z,51.81
2022-08-03T08:46:49.060Z,50.18
2022-08-03T08:49:24.543Z,50.01
2022-08-03T08:52:00.712Z,50.49
2022-08-03T08:54:33.843Z,50.08
2022-08-03T08:57:21.374Z,50.12
2022-08-03T08:59:59.432Z,50.10
2022-08-03T09:02:32.657Z,50.54
2022-08-03T09:05:07.480Z,49.59
2022-08-03T09:07:38.961Z,48.29
2022-08-03T09:10:13.702Z,49.74
2022-08-03T09:12:47.636Z,49.83
2022-08-03T09:15:24.589Z,50.24
2022-08-03T09:17:57.025Z,49.06
2022-08-03T09:20:29.996Z,48.92
2022-08-03T09:23:19.131Z,48.59
2022-08-03T09:26:01.828Z,47.88
2022-08-03T09:28:59.942Z,48.22
2022-08-03T09:31:38.104Z,48.71
2022-08-03T09:34:13.848Z,48.71
2022-08-03T09:36:47.223Z,48.27
2022-08-03T09:39:40.180Z,48.33
2022-08-03T09:42:14.997Z,47.49
2022-08-03T09:44:47.435Z,48.02
2022-08-03T09:47:31.207Z,48.88
2022-08-03T09:50:04.139Z,48.85
2022-08-03T09:52:49.248Z,48.21
2022-08-03T09:56:33.318Z,46.86
2022-08-03T09:58:16.094Z,46.18
2022-08-03T10:00:58.954Z,46.88
2022-08-03T10:03:31.446Z,46.92
2022-08-03T10:06:19.478Z,46.84
2022-08-03T10:09:05.612Z,46.47
2022-08-03T10:11:41.585Z,45.74
2022-08-03T10:14:19.048Z,45.89
2022-08-03T10:16:50.899Z,46.06
2022-08-03T10:19:22.045Z,45.57
2022-08-03T10:21:58.647Z,45.84
2022-08-03T10:24:31.838Z,45.88
2022-08-03T10:27:05.714Z,45.18
2022-08-03T10:29:40.612Z,45.37
2022-08-03T10:32:19.688Z,45.64
2022-08-03T10:34:59.987Z,44.76
2022-08-03T10:37:34.284Z,43.96
2022-08-03T10:40:06.521Z,44.32
2022-08-03T10:42:38.210Z,44.55
2022-08-03T10:45:14.169Z,43.43
2022-08-03T10:47:45.430Z,43.14
2022-08-03T10:50:17.193Z,43.83
2022-08-03T10:52:59.309Z,44.34
2022-08-03T10:55:54.535Z,44.09
2022-08-03T10:58:53.514Z,43.46
2022-08-03T11:01:58.766Z,42.38
2022-08-03T11:04:31.813Z,42.54
2022-08-03T11:07:26.636Z,42.31
2022-08-03T11:09:58.373Z,42.39
2022-08-03T11:12:32.174Z,42.76
2022-08-03T11:15:06.570Z,42.74
2022-08-03T11:17:45.817Z,43.17
2022-08-03T11:20:18.030Z,43.62
2022-08-03T11:22:54.572Z,43.75
2022-08-03T11:25:53.559Z,43.82
2022-08-03T11:28:33.669Z,44.39
2022-08-03T11:33:00.475Z,43.46
2022-08-03T11:35:33.769Z,42.69
2022-08-03T11:38:15.006Z,43.63
2022-08-03T11:40:50.507Z,43.80
2022-08-03T11:43:47.854Z,42.81
2022-08-03T11:46:28.171Z,41.24
2022-08-03T11:49:11.011Z,40.03
2022-08-03T11:51:42.295Z,40.01
2022-08-03T11:54:13.276Z,39.68
2022-08-03T11:56:51.401Z,39.37
2022-08-03T11:59:42.252Z,39.21
2022-08-03T12:02:16.554Z,38.85
2022-08-03T12:04:54.364Z,39.91
2022-08-03T12:08:03.357Z,38.30
2022-08-03T12:10:19.039Z,39.63
2022-08-03T12:12:58.345Z,38.29
2022-08-03T12:15:32.487Z,38.33
2022-08-03T12:18:04.561Z,38.32
2022-08-03T12:20:38.349Z,38.29
2022-08-03T12:23:10.835Z,38.62
2022-08-03T12:25:44.068Z,39.54
2022-08-03T12:28:28.256Z,38.72
2022-08-03T12:31:09.476Z,38.20
2022-08-03T12:34:04.151Z,38.68
2022-08-03T12:36:34.687Z,40.08
2022-08-03T12:39:08.613Z,40.61
2022-08-03T12:41:40.950Z,38.67
2022-08-03T12:44:12.652Z,39.15
2022-08-03T12:46:47.967Z,39.65
2022-08-03T12:49:19.769Z,39.39
2022-08-03T12:52:05.486Z,39.26
2022-08-03T12:54:38.565Z,40.26
2022-08-03T12:57:16.052Z,40.73
2022-08-03T12:59:53.381Z,39.21
2022-08-03T13:02:27.816Z,39.28
2022-08-03T13:05:00.250Z,39.82
2022-08-03T13:07:41.364Z,38.60
2022-08-03T13:10:31.384Z,39.73
2022-08-03T13:13:04.490Z,38.23
2022-08-03T13:15:39.633Z,38.48
2022-08-03T13:18:18.812Z,38.64
2022-08-03T13:20:49.789Z,38.25
2022-08-03T13:23:22.784Z,38.01
2022-08-03T13:25:55.013Z,37.15
2022-08-03T13:28:27.187Z,36.53
2022-08-03T13:30:58.327Z,37.08
2022-08-03T13:33:29.565Z,37.46
2022-08-03T13:36:00.432Z,36.97
2022-08-03T13:38:31.673Z,36.23
2022-08-03T13:41:05.224Z,34.45
2022-08-03T13:43:36.292Z,35.77
2022-08-03T13:46:15.692Z,36.07
2022-08-03T13:48:47.008Z,36.63
2022-08-03T13:51:22.477Z,36.34
2022-08-03T13:53:59.691Z,35.95
2022-08-03T13:56:31.145Z,36.31
2022-08-03T13:59:02.581Z,34.18
2022-08-03T14:01:54.109Z,34.28
2022-08-03T14:04:24.789Z,34.27
2022-08-03T14:06:55.809Z,34.43
2022-08-03T14:09:26.901Z,34.62
2022-08-03T14:12:08.416Z,35.04
2022-08-03T14:14:39.795Z,34.32
2022-08-03T14:17:11.420Z,33.54
2022-08-03T14:19:53.240Z,33.49
2022-08-03T14:22:23.995Z,33.99
2022-08-03T14:24:55.222Z,33.44
2022-08-03T14:27:27.131Z,33.03
2022-08-03T14:30:01.439Z,32.47
2022-08-03T14:32:33.424Z,31.82
2022-08-03T14:35:04.656Z,31.29
2022-08-03T14:37:38.142Z,30.44
2022-08-03T14:40:10.824Z,30.50
2022-08-03T14:42:45.662Z,30.79
2022-08-03T14:45:20.302Z,30.69
2022-08-03T14:50:30.828Z,30.26
2022-08-03T14:50:51.357Z,30.42
2022-08-03T14:53:30.232Z,28.37
2022-08-03T14:56:01.932Z,28.20
2022-08-03T14:58:59.558Z,26.71
2022-08-03T15:02:04.419Z,27.80
2022-08-03T15:04:21.674Z,27.38
2022-08-03T15:06:52.556Z,26.71
2022-08-03T15:09:24.176Z,27.62
2022-08-03T15:11:55.164Z,28.09
2022-08-03T15:14:32.242Z,27.02
2022-08-03T15:17:04.416Z,25.45
2022-08-03T15:20:03.917Z,24.62
2022-08-03T15:22:34.622Z,24.29
2022-08-03T15:26:06.513Z,25.77
2022-08-03T15:28:10.017Z,25.84
2022-08-03T15:30:41.148Z,24.34
2022-08-03T15:33:12.276Z,24.66
2022-08-03T15:35:43.333Z,25.48
2022-08-03T15:38:14.891Z,25.19
2022-08-03T15:40:46.467Z,25.38
2022-08-03T15:43:21.719Z,24.95
2022-08-03T15:46:19.482Z,24.62
2022-08-03T15:48:44.663Z,24.81
2022-08-03T15:51:15.824Z,25.11
2022-08-03T15:53:46.969Z,25.26
2022-08-03T15:56:18.891Z,24.91
2022-08-03T15:59:04.173Z,24.30
2022-08-03T16:01:41.379Z,25.00
2022-08-03T16:04:12.778Z,24.99
2022-08-03T16:06:49.684Z,24.73
2022-08-03T16:09:43.074Z,24.74
2022-08-03T16:12:19.651Z,24.57
2022-08-03T16:14:53.384Z,24.82
2022-08-03T16:17:26.457Z,25.61
2022-08-03T16:20:05.112Z,25.23
2022-08-03T16:22:47.799Z,25.48
2022-08-03T16:25:20.776Z,25.39
2022-08-03T16:28:00.294Z,25.07
2022-08-03T16:30:38.707Z,24.76
2022-08-03T16:33:09.723Z,24.04
2022-08-03T16:35:40.755Z,24.86
2022-08-03T16:38:15.376Z,24.17
2022-08-03T16:40:52.346Z,23.25
2022-08-03T16:43:29.839Z,23.41
2022-08-03T16:46:00.760Z,24.88
2022-08-03T16:48:36.000Z,26.08
2022-08-03T16:51:07.065Z,26.18
2022-08-03T16:54:07.224Z,26.89
2022-08-03T16:56:29.471Z,28.50
2022-08-03T16:59:00.860Z,28.93
2022-08-03T17:01:35.707Z,28.74
2022-08-03T17:04:10.360Z,29.54
2022-08-03T17:06:45.420Z,29.42
2022-08-03T17:09:19.046Z,29.01
2022-08-03T17:11:53.132Z,29.21
2022-08-03T17:14:29.346Z,29.66
2022-08-03T17:17:02.589Z,30.02
2022-08-03T17:19:36.600Z,29.39
2022-08-03T17:22:12.847Z,29.14
2022-08-03T17:24:52.016Z,29.05
2022-08-03T17:28:50.617Z,29.33
2022-08-03T17:30:19.047Z,28.87
2022-08-03T17:32:57.063Z,28.43
2022-08-03T17:35:34.674Z,28.88
2022-08-03T17:38:18.515Z,27.78
2022-08-03T17:40:52.519Z,28.26
2022-08-03T17:44:13.974Z,29.18
2022-08-03T17:46:19.686Z,28.97
2022-08-03T17:48:54.345Z,29.75
2022-08-03T17:51:35.084Z,30.35
2022-08-03T17:54:21.336Z,31.18
2022-08-03T17:57:21.982Z,31.41
2022-08-03T18:00:00.722Z,31.34
2022-08-03T18:03:03.388Z,32.00
2022-08-03T18:06:11.342Z,32.67
2022-08-03T18:08:29.902Z,33.20
2022-08-03T18:11:09.706Z,33.70
2022-08-03T18:13:53.521Z,34.98
2022-08-03T18:16:35.255Z,36.40
2022-08-03T18:19:13.462Z,37.58
2022-08-03T18:22:03.464Z,38.86
2022-08-03T18:24:35.805Z,39.95
2022-08-03T18:27:10.758Z,41.21
2022-08-03T18:29:43.730Z,42.13
2022-08-03T18:32:17.030Z,42.88
2022-08-03T18:35:07.788Z,44.23
2022-08-03T18:37:52.065Z,45.10
2022-08-03T18:40:25.164Z,46.24
2022-08-03T18:42:59.086Z,47.36
2022-08-03T18:45:55.790Z,47.96
2022-08-03T18:48:34.796Z,49.53
2022-08-03T18:51:24.353Z,50.21
2022-08-03T18:54:07.398Z,50.72
2022-08-03T18:56:48.099Z,51.27
2022-08-03T18:59:30.032Z,51.98
2022-08-03T19:02:09.190Z,52.78
2022-08-03T19:04:45.692Z,53.37
2022-08-03T19:07:17.780Z,53.97
2022-08-03T19:09:58.105Z,54.64
2022-08-03T19:12:39.977Z,55.14
2022-08-03T19:15:15.657Z,55.62
2022-08-03T19:17:52.991Z,56.12
2022-08-03T19:20:26.002Z,56.64
2022-08-03T19:22:59.187Z,57.33
2022-08-03T19:25:35.078Z,57.66
2022-08-03T19:28:08.002Z,57.86
2022-08-03T19:30:40.818Z,57.98
2022-08-03T19:33:29.830Z,58.39
2022-08-03T19:36:01.344Z,58.93
2022-08-03T19:38:33.015Z,59.14
2022-08-03T19:41:06.640Z,59.51
2022-08-03T19:43:52.714Z,60.01
2022-08-03T19:46:30.858Z,60.63
2022-08-03T19:49:10.621Z,60.93
2022-08-03T19:52:01.960Z,61.31
2022-08-03T19:54:45.773Z,61.56
2022-08-03T19:57:29.476Z,61.81
2022-08-03T20:00:03.418Z,62.01
2022-08-03T20:02:35.140Z,62.21
2022-08-03T20:05:15.120Z,62.42
2022-08-03T20:07:48.598Z,62.79
2022-08-03T20:10:20.131Z,63.12
2022-08-03T20:12:51.167Z,63.24
2022-08-03T20:15:31.347Z,63.21
2022-08-03T20:18:02.777Z,63.35
2022-08-03T20:20:36.246Z,63.60
2022-08-03T20:23:12.510Z,63.77
2022-08-03T20:25:58.281Z,63.86
2022-08-03T20:28:50.147Z,64.05
2022-08-03T20:31:32.212Z,64.56
2022-08-03T20:34:09.086Z,64.84
2022-08-03T20:36:40.024Z,64.68
2022-08-03T20:39:10.872Z,64.96
2022-08-03T20:41:43.363Z,65.18
2022-08-03T20:44:14.282Z,65.24
2022-08-03T20:46:53.282Z,65.25
2022-08-03T20:49:45.667Z,65.66
2022-08-03T20:52:21.005Z,65.93
2022-08-03T20:54:58.324Z,65.87
2022-08-03T20:57:33.090Z,66.28
2022-08-03T21:00:09.968Z,66.26
2022-08-03T21:02:43.171Z,66.23
2022-08-03T21:05:14.330Z,66.17
2022-08-03T21:08:05.660Z,66.17
2022-08-03T21:10:42.048Z,66.72
2022-08-03T21:13:23.612Z,66.67
2022-08-03T21:16:11.353Z,66.58
2022-08-03T21:18:50.396Z,66.62
2022-08-03T21:21:24.326Z,66.69
2022-08-03T21:23:56.810Z,66.72
2022-08-03T21:26:33.014Z,67.07
2022-08-03T21:29:03.993Z,67.27
2022-08-03T21:31:34.892Z,67.21
2022-08-03T21:34:07.481Z,67.36
2022-08-03T21:36:39.277Z,67.77
2022-08-03T21:39:11.861Z,67.78
2022-08-03T21:41:42.965Z,67.86
2022-08-03T21:44:13.859Z,67.74
2022-08-03T21:46:45.254Z,67.94
2022-08-03T21:49:51.741Z,68.23
2022-08-03T21:52:08.633Z,68.43
2022-08-03T21:54:44.287Z,68.27
2022-08-03T21:57:21.385Z,68.54
2022-08-03T21:59:56.714Z,68.59
2022-08-03T22:02:31.532Z,68.73
2022-08-03T22:05:05.125Z,68.96
2022-08-03T22:07:37.932Z,69.08
2022-08-03T22:10:10.935Z,68.93
2022-08-03T22:12:42.914Z,68.77
2022-08-03T22:15:15.592Z,68.95
2022-08-03T22:17:55.127Z,68.97
2022-08-03T22:20:28.800Z,68.95
2022-08-03T22:23:03.435Z,69.19
2022-08-03T22:25:37.160Z,69.31
2022-08-03T22:28:12.107Z,69.51
2022-08-03T22:30:44.064Z,69.48
2022-08-03T22:33:17.840Z,69.62
2022-08-03T22:35:52.678Z,69.71
2022-08-03T22:38:26.302Z,69.83
2022-08-03T22:40:58.520Z,69.88
2022-08-03T22:43:29.920Z,70.11
2022-08-03T22:46:09.247Z,70.15
2022-08-03T22:48:42.318Z,70.36
2022-08-03T22:51:13.184Z,70.73
2022-08-03T22:53:46.047Z,71.11
2022-08-03T22:56:17.295Z,70.96
2022-08-03T22:58:48.336Z,70.97
2022-08-03T23:01:24.214Z,71.08
2022-08-03T23:04:02.325Z,71.01
2022-08-03T23:06:36.962Z,71.01
2022-08-03T23:09:11.161Z,70.81
2022-08-03T23:11:46.114Z,70.76
2022-08-03T23:14:19.771Z,70.78
2022-08-03T23:16:52.275Z,70.79
2022-08-03T23:19:26.766Z,70.98
2022-08-03T23:22:05.711Z,70.78
2022-08-03T23:24:38.179Z,70.89
2022-08-03T23:27:10.702Z,71.00
2022-08-03T23:29:43.923Z,71.25
2022-08-03T23:32:16.023Z,71.25
2022-08-03T23:35:06.574Z,71.18
2022-08-03T23:38:22.189Z,71.38
2022-08-03T23:40:31.250Z,71.54
2022-08-03T23:43:03.944Z,71.68
2022-08-03T23:45:37.770Z,71.69
2022-08-03T23:48:09.210Z,71.93
2022-08-03T23:50:46.563Z,71.88
2022-08-03T23:53:23.351Z,71.88
2022-08-03T23:56:04.821Z,71.75
2022-08-03T23:58:47.535Z,71.86
